createdAt,value
2022-08-26T00:01:44.233Z,19.10
2022-08-26T00:04:12.203Z,19.00
2022-08-26T00:06:42.731Z,18.90
2022-08-26T00:09:16.225Z,18.80
2022-08-26T00:11:44.687Z,18.70
2022-08-26T00:14:13.606Z,18.60
2022-08-26T00:16:40.998Z,18.60
2022-08-26T00:19:14.276Z,18.60
2022-08-26T00:21:41.343Z,18.50
2022-08-26T00:24:07.975Z,18.50
2022-08-26T00:26:34.840Z,18.40
2022-08-26T00:29:01.694Z,18.40
2022-08-26T00:31:28.621Z,18.50
2022-08-26T00:33:57.992Z,18.50
2022-08-26T00:36:24.744Z,18.50
2022-08-26T00:38:56.185Z,18.50
2022-08-26T00:41:22.737Z,18.60
2022-08-26T00:43:50.870Z,18.60
2022-08-26T00:46:21.648Z,18.60
2022-08-26T00:48:52.277Z,18.50
2022-08-26T00:51:23.010Z,18.40
2022-08-26T00:53:58.755Z,18.40
2022-08-26T00:56:38.091Z,18.40
2022-08-26T00:59:11.568Z,18.30
2022-08-26T01:01:41.327Z,18.20
2022-08-26T01:04:09.513Z,18.20
2022-08-26T01:06:36.554Z,18.10
2022-08-26T01:09:03.818Z,18.20
2022-08-26T01:11:31.798Z,18.20
2022-08-26T01:14:02.727Z,18.30
2022-08-26T01:16:30.139Z,18.20
2022-08-26T01:19:03.489Z,18.20
2022-08-26T01:21:41.285Z,18.20
2022-08-26T01:24:10.337Z,18.20
2022-08-26T01:26:43.363Z,18.20
2022-08-26T01:29:15.565Z,18.20
2022-08-26T01:31:49.617Z,18.20
2022-08-26T01:34:25.246Z,18.10
2022-08-26T01:37:16.215Z,18.10
2022-08-26T01:39:45.133Z,18.00
2022-08-26T01:42:14.971Z,18.00
2022-08-26T01:44:53.561Z,18.00
2022-08-26T01:47:23.437Z,18.00
2022-08-26T01:49:53.655Z,18.00
2022-08-26T01:52:28.058Z,18.00
2022-08-26T01:54:56.882Z,18.00
2022-08-26T01:57:24.905Z,18.00
2022-08-26T01:59:55.072Z,18.00
2022-08-26T02:02:22.639Z,18.00
2022-08-26T02:04:57.219Z,18.00
2022-08-26T02:07:26.571Z,18.00
2022-08-26T02:09:53.327Z,17.90
2022-08-26T02:12:20.459Z,18.00
2022-08-26T02:14:53.586Z,18.00
2022-08-26T02:17:24.576Z,18.00
2022-08-26T02:19:51.757Z,17.90
2022-08-26T02:22:20.832Z,18.00
2022-08-26T02:24:52.593Z,17.90
2022-08-26T02:27:32.839Z,17.80
2022-08-26T02:30:32.483Z,17.80
2022-08-26T02:33:03.623Z,17.70
2022-08-26T02:35:31.514Z,17.60
2022-08-26T02:37:58.854Z,17.50
2022-08-26T02:40:30.616Z,17.50
2022-08-26T02:42:57.894Z,17.50
2022-08-26T02:45:26.158Z,17.50
2022-08-26T02:47:53.315Z,17.40
2022-08-26T02:50:20.679Z,17.40
2022-08-26T02:52:48.559Z,17.40
2022-08-26T02:55:16.143Z,17.40
2022-08-26T02:57:43.242Z,17.30
2022-08-26T03:00:12.465Z,17.30
2022-08-26T03:02:39.327Z,17.30
2022-08-26T03:05:06.493Z,17.30
2022-08-26T03:07:33.121Z,17.30
2022-08-26T03:10:00.862Z,17.30
2022-08-26T03:12:27.673Z,17.20
2022-08-26T03:14:54.337Z,17.20
2022-08-26T03:17:20.980Z,17.20
2022-08-26T03:19:50.695Z,17.20
2022-08-26T03:22:19.565Z,17.20
2022-08-26T03:24:47.180Z,17.10
2022-08-26T03:27:14.386Z,17.00
2022-08-26T03:30:00.111Z,17.00
2022-08-26T03:32:26.930Z,17.00
2022-08-26T03:34:54.188Z,16.90
2022-08-26T03:37:21.494Z,16.90
2022-08-26T03:39:48.679Z,16.90
2022-08-26T03:42:17.537Z,16.90
2022-08-26T03:44:48.796Z,16.90
2022-08-26T03:47:15.765Z,16.90
2022-08-26T03:49:42.465Z,16.90
2022-08-26T03:52:09.160Z,16.90
2022-08-26T03:54:36.538Z,16.90
2022-08-26T03:57:03.474Z,16.90
2022-08-26T03:59:30.070Z,16.90
2022-08-26T04:01:56.702Z,16.90
2022-08-26T04:04:24.557Z,16.80
2022-08-26T04:06:58.133Z,16.80
2022-08-26T04:09:25.649Z,16.80
2022-08-26T04:11:52.226Z,16.70
2022-08-26T04:14:21.892Z,16.70
2022-08-26T04:16:49.772Z,16.70
2022-08-26T04:19:17.418Z,16.70
2022-08-26T04:21:47.823Z,16.60
2022-08-26T04:24:16.145Z,16.60
2022-08-26T04:26:44.418Z,16.60
2022-08-26T04:29:21.282Z,16.60
2022-08-26T04:31:48.323Z,16.50
2022-08-26T04:34:16.017Z,16.50
2022-08-26T04:36:44.291Z,16.60
2022-08-26T04:39:12.417Z,16.60
2022-08-26T04:41:39.775Z,16.60
2022-08-26T04:44:07.660Z,16.70
2022-08-26T04:46:34.439Z,16.80
2022-08-26T04:49:02.461Z,16.80
2022-08-26T04:51:29.097Z,16.80
2022-08-26T04:53:59.661Z,16.90
2022-08-26T04:56:29.531Z,16.90
2022-08-26T04:58:56.499Z,17.00
2022-08-26T05:01:23.947Z,17.00
2022-08-26T05:03:51.055Z,17.00
2022-08-26T05:06:19.495Z,17.00
2022-08-26T05:08:46.435Z,17.10
2022-08-26T05:11:13.476Z,17.10
2022-08-26T05:13:41.287Z,17.20
2022-08-26T05:16:13.284Z,17.20
2022-08-26T05:18:40.735Z,17.30
2022-08-26T05:21:20.453Z,17.30
2022-08-26T05:23:49.009Z,17.40
2022-08-26T05:26:16.554Z,17.50
2022-08-26T05:28:43.288Z,17.60
2022-08-26T05:31:23.289Z,17.70
2022-08-26T05:33:50.303Z,17.70
2022-08-26T05:36:20.732Z,17.80
2022-08-26T05:38:48.724Z,17.80
2022-08-26T05:41:34.579Z,17.90
2022-08-26T05:44:08.497Z,17.90
2022-08-26T05:46:36.656Z,18.00
2022-08-26T05:49:04.923Z,18.10
2022-08-26T05:51:34.883Z,18.10
2022-08-26T05:54:03.617Z,18.20
2022-08-26T05:56:30.672Z,18.20
2022-08-26T05:58:58.560Z,18.30
2022-08-26T06:01:28.036Z,18.30
2022-08-26T06:04:01.801Z,18.30
2022-08-26T06:06:34.698Z,18.30
2022-08-26T06:09:04.944Z,18.30
2022-08-26T06:11:32.521Z,18.30
2022-08-26T06:14:03.839Z,18.30
2022-08-26T06:16:34.573Z,18.30
2022-08-26T06:19:03.020Z,18.40
2022-08-26T06:21:35.160Z,18.40
2022-08-26T06:24:26.941Z,18.40
2022-08-26T06:26:56.891Z,18.50
2022-08-26T06:29:25.785Z,18.50
2022-08-26T06:31:53.986Z,18.60
2022-08-26T06:34:21.148Z,18.70
2022-08-26T06:36:49.430Z,18.80
2022-08-26T06:39:19.697Z,18.90
2022-08-26T06:41:47.315Z,19.00
2022-08-26T06:44:15.160Z,19.10
2022-08-26T06:46:43.220Z,19.10
2022-08-26T06:49:12.570Z,19.20
2022-08-26T06:51:40.777Z,19.20
2022-08-26T06:54:10.189Z,19.20
2022-08-26T06:56:43.730Z,19.20
2022-08-26T06:59:11.775Z,19.20
2022-08-26T07:01:44.767Z,19.20
2022-08-26T07:04:14.488Z,19.30
2022-08-26T07:06:50.016Z,19.50
2022-08-26T07:09:19.164Z,19.50
2022-08-26T07:11:46.227Z,19.70
2022-08-26T07:14:13.195Z,19.80
2022-08-26T07:16:41.212Z,20.00
2022-08-26T07:19:11.267Z,20.10
2022-08-26T07:21:40.208Z,20.20
2022-08-26T07:24:07.960Z,20.40
2022-08-26T07:26:35.130Z,20.40
2022-08-26T07:29:02.614Z,20.50
2022-08-26T07:31:39.441Z,20.60
2022-08-26T07:34:09.311Z,20.60
2022-08-26T07:36:36.592Z,20.70
2022-08-26T07:39:03.749Z,20.80
2022-08-26T07:44:02.347Z,20.90
2022-08-26T07:46:31.122Z,21.10
2022-08-26T07:48:58.231Z,21.20
2022-08-26T07:51:25.459Z,21.20
2022-08-26T07:53:53.182Z,21.40
2022-08-26T07:56:21.655Z,21.50
2022-08-26T07:58:51.753Z,21.60
2022-08-26T08:01:20.440Z,21.90
2022-08-26T08:03:50.506Z,22.10
2022-08-26T08:06:18.707Z,22.30
2022-08-26T08:08:46.364Z,22.40
2022-08-26T08:11:14.241Z,22.60
2022-08-26T08:13:41.272Z,22.70
2022-08-26T08:16:12.483Z,22.90
2022-08-26T08:18:40.178Z,22.90
2022-08-26T08:21:24.187Z,23.10
2022-08-26T08:23:53.479Z,23.30
2022-08-26T08:26:21.006Z,23.60
2022-08-26T08:28:48.162Z,23.90
2022-08-26T08:34:21.564Z,24.40
2022-08-26T08:36:48.963Z,24.50
2022-08-26T08:39:16.712Z,24.80
2022-08-26T08:41:48.688Z,25.00
2022-08-26T08:44:21.704Z,25.30
2022-08-26T08:46:58.502Z,25.60
2022-08-26T08:49:25.906Z,25.80
2022-08-26T09:12:29.770Z,27.90
2022-08-26T09:15:11.221Z,27.90
2022-08-26T09:18:06.945Z,28.20
2022-08-26T09:20:48.320Z,28.40
2022-08-26T09:23:15.835Z,28.50
2022-08-26T09:25:52.318Z,28.40
2022-08-26T09:28:21.310Z,28.20
2022-08-26T09:31:21.256Z,28.00
2022-08-26T09:34:17.294Z,27.80
2022-08-26T09:36:55.638Z,27.70
2022-08-26T09:39:28.002Z,27.80
2022-08-26T09:42:25.388Z,28.00
2022-08-26T09:45:04.207Z,28.10
2022-08-26T09:47:52.645Z,27.90
2022-08-26T09:50:52.219Z,27.50
2022-08-26T09:53:28.507Z,27.90
2022-08-26T09:56:16.963Z,27.70
2022-08-26T09:58:47.171Z,27.90
2022-08-26T10:01:38.158Z,28.10
2022-08-26T10:04:10.442Z,28.40
2022-08-26T10:07:05.038Z,28.60
2022-08-26T10:09:36.084Z,29.10
2022-08-26T10:12:08.220Z,29.40
2022-08-26T10:17:29.118Z,29.10
2022-08-26T10:20:05.383Z,29.40
2022-08-26T10:22:55.142Z,29.30
2022-08-26T10:25:28.271Z,28.60
2022-08-26T10:28:04.725Z,28.20
2022-08-26T10:30:38.455Z,28.60
2022-08-26T10:33:08.835Z,28.80
2022-08-26T10:35:40.882Z,28.80
2022-08-26T10:38:18.473Z,29.00
2022-08-26T10:40:53.285Z,29.00
2022-08-26T10:43:53.004Z,28.90
2022-08-26T10:46:24.120Z,29.20
2022-08-26T10:49:00.596Z,29.50
2022-08-26T10:51:36.423Z,29.70
2022-08-26T10:54:12.979Z,29.80
2022-08-26T10:56:57.883Z,29.90
2022-08-26T10:59:30.671Z,29.50
2022-08-26T11:02:28.015Z,29.00
2022-08-26T11:05:05.359Z,28.70
2022-08-26T11:07:35.379Z,28.80
2022-08-26T11:10:16.625Z,29.10
2022-08-26T11:12:45.263Z,29.60
2022-08-26T11:15:24.863Z,29.50
2022-08-26T11:17:51.587Z,30.00
2022-08-26T11:20:33.306Z,30.20
2022-08-26T11:23:28.098Z,30.10
2022-08-26T11:26:10.280Z,30.20
2022-08-26T11:28:44.240Z,30.20
2022-08-26T11:31:18.856Z,30.20
2022-08-26T11:33:47.845Z,30.60
2022-08-26T11:36:42.872Z,31.10
2022-08-26T11:39:24.098Z,31.60
2022-08-26T11:41:53.768Z,31.80
2022-08-26T11:44:23.900Z,31.30
2022-08-26T11:47:12.000Z,30.90
2022-08-26T11:49:40.061Z,31.60
2022-08-26T11:52:14.366Z,31.20
2022-08-26T11:54:41.012Z,31.10
2022-08-26T11:57:12.236Z,30.70
2022-08-26T11:59:40.697Z,30.30
2022-08-26T12:02:17.769Z,29.90
2022-08-26T12:04:48.801Z,29.60
2022-08-26T12:07:16.502Z,29.50
2022-08-26T12:09:57.957Z,30.50
2022-08-26T12:12:35.242Z,31.60
2022-08-26T12:15:15.811Z,31.50
2022-08-26T12:17:44.191Z,31.60
2022-08-26T12:20:19.225Z,32.00
2022-08-26T12:22:48.119Z,31.60
2022-08-26T12:25:23.609Z,31.90
2022-08-26T12:27:53.653Z,31.70
2022-08-26T12:30:25.991Z,32.10
2022-08-26T12:33:22.752Z,31.50
2022-08-26T12:35:54.370Z,32.10
2022-08-26T12:38:24.286Z,32.40
2022-08-26T12:40:50.927Z,32.90
2022-08-26T12:43:40.257Z,32.60
2022-08-26T12:46:08.961Z,31.80
2022-08-26T12:48:38.421Z,32.80
2022-08-26T12:51:08.948Z,33.00
2022-08-26T12:53:43.063Z,32.10
2022-08-26T12:56:38.976Z,32.60
2022-08-26T12:59:17.398Z,32.70
2022-08-26T13:01:44.717Z,31.80
2022-08-26T13:07:13.674Z,30.60
2022-08-26T13:09:40.319Z,30.40
2022-08-26T13:12:07.039Z,30.60
2022-08-26T13:14:33.629Z,30.90
2022-08-26T13:17:00.248Z,30.80
2022-08-26T13:19:26.931Z,30.50
2022-08-26T13:21:56.299Z,30.30
2022-08-26T13:24:34.343Z,30.10
2022-08-26T13:27:02.410Z,30.20
2022-08-26T13:29:29.092Z,30.00
2022-08-26T13:31:58.263Z,30.00
2022-08-26T13:34:25.101Z,30.10
2022-08-26T13:36:55.121Z,30.50
2022-08-26T13:39:23.036Z,30.90
2022-08-26T13:41:49.978Z,30.50
2022-08-26T13:44:17.283Z,30.50
2022-08-26T13:49:15.522Z,30.20
2022-08-26T13:51:42.142Z,30.50
2022-08-26T13:54:08.930Z,30.50
2022-08-26T13:56:36.159Z,30.40
2022-08-26T13:59:03.345Z,30.10
2022-08-26T14:01:32.026Z,29.80
2022-08-26T14:03:59.490Z,29.40
2022-08-26T14:06:26.344Z,29.80
2022-08-26T14:08:52.974Z,30.20
2022-08-26T14:11:19.654Z,30.70
2022-08-26T14:13:46.247Z,30.80
2022-08-26T14:16:25.431Z,30.80
2022-08-26T14:18:52.681Z,30.10
2022-08-26T14:21:19.285Z,30.80
2022-08-26T14:23:46.038Z,31.00
2022-08-26T14:29:00.461Z,31.50
2022-08-26T14:31:29.319Z,31.50
2022-08-26T14:33:59.469Z,31.90
2022-08-26T14:36:28.912Z,32.30
2022-08-26T14:38:58.242Z,31.70
2022-08-26T14:41:25.348Z,31.30
2022-08-26T14:43:57.830Z,31.50
2022-08-26T14:46:28.603Z,31.60
2022-08-26T14:49:01.564Z,32.00
2022-08-26T14:51:29.177Z,32.10
2022-08-26T14:54:13.922Z,31.80
2022-08-26T14:56:46.347Z,32.00
2022-08-26T14:59:17.359Z,31.30
2022-08-26T15:01:44.683Z,30.50
2022-08-26T15:04:11.548Z,29.70
2022-08-26T15:06:38.653Z,29.50
2022-08-26T15:09:05.330Z,29.20
2022-08-26T15:11:32.260Z,29.00
2022-08-26T15:13:59.903Z,28.80
2022-08-26T15:16:29.021Z,28.70
2022-08-26T15:18:56.190Z,28.60
2022-08-26T15:21:23.384Z,28.50
2022-08-26T15:23:51.536Z,28.30
2022-08-26T15:26:19.413Z,28.00
2022-08-26T15:28:46.497Z,28.00
2022-08-26T15:31:13.460Z,27.80
2022-08-26T15:33:40.369Z,27.60
2022-08-26T15:38:38.863Z,25.40
2022-08-26T15:41:06.991Z,24.80
2022-08-26T15:43:33.627Z,24.00
2022-08-26T15:46:00.994Z,23.50
2022-08-26T15:48:28.163Z,23.20
2022-08-26T15:50:57.994Z,22.90
2022-08-26T15:53:24.933Z,22.80
2022-08-26T15:55:54.958Z,22.60
2022-08-26T15:58:24.753Z,21.90
2022-08-26T16:00:53.729Z,20.30
2022-08-26T16:03:20.598Z,19.50
2022-08-26T16:05:47.964Z,19.10
2022-08-26T16:08:15.345Z,18.90
2022-08-26T16:10:49.956Z,18.50
2022-08-26T16:13:18.714Z,18.30
2022-08-26T16:15:45.708Z,18.20
2022-08-26T16:18:13.790Z,18.20
2022-08-26T16:21:12.948Z,18.10
2022-08-26T16:23:36.392Z,18.00
2022-08-26T16:26:24.076Z,17.90
2022-08-26T16:28:51.045Z,17.90
2022-08-26T16:31:18.139Z,18.00
2022-08-26T16:33:44.859Z,18.20
2022-08-26T16:36:11.916Z,18.40
2022-08-26T16:38:39.863Z,18.50
2022-08-26T16:41:07.282Z,18.50
2022-08-26T16:43:34.556Z,18.40
2022-08-26T16:46:01.219Z,18.50
2022-08-26T16:48:27.869Z,18.40
2022-08-26T16:50:55.360Z,18.30
2022-08-26T16:53:22.390Z,18.20
2022-08-26T16:55:50.097Z,18.10
2022-08-26T16:58:17.061Z,18.10
2022-08-26T17:00:43.993Z,18.20
2022-08-26T17:03:10.635Z,18.10
2022-08-26T17:05:37.497Z,18.10
2022-08-26T17:08:04.927Z,18.00
2022-08-26T17:10:32.136Z,18.00
2022-08-26T17:12:58.776Z,18.00
2022-08-26T17:15:25.863Z,18.10
2022-08-26T17:17:53.646Z,18.00
2022-08-26T17:20:21.087Z,18.10
2022-08-26T17:22:49.540Z,17.90
2022-08-26T17:25:24.407Z,17.70
2022-08-26T17:27:51.655Z,17.70
2022-08-26T17:30:19.075Z,17.50
2022-08-26T17:32:46.261Z,17.50
2022-08-26T17:35:14.122Z,17.40
2022-08-26T17:37:41.469Z,17.40
2022-08-26T17:40:11.655Z,17.50
2022-08-26T17:42:39.702Z,17.60
2022-08-26T17:45:07.217Z,17.70
2022-08-26T17:47:34.421Z,17.80
2022-08-26T17:50:01.410Z,17.80
2022-08-26T17:52:28.920Z,17.80
2022-08-26T17:54:56.348Z,17.80
2022-08-26T17:57:23.978Z,17.80
2022-08-26T17:59:50.968Z,17.90
2022-08-26T18:02:20.844Z,17.90
2022-08-26T18:04:47.549Z,18.00
2022-08-26T18:07:14.796Z,18.00
2022-08-26T18:09:41.439Z,18.00
2022-08-26T18:12:08.231Z,18.00
2022-08-26T18:14:35.258Z,18.00
2022-08-26T18:17:02.063Z,18.00
2022-08-26T18:19:29.677Z,18.00
2022-08-26T18:21:56.730Z,18.00
2022-08-26T18:24:23.594Z,18.00
2022-08-26T18:26:50.993Z,17.90
2022-08-26T18:29:19.418Z,18.00
2022-08-26T18:31:46.598Z,17.90
2022-08-26T18:34:15.383Z,17.80
2022-08-26T18:36:42.795Z,17.80
2022-08-26T18:39:11.491Z,17.80
2022-08-26T18:41:47.467Z,17.90
2022-08-26T18:44:16.611Z,17.90
2022-08-26T18:46:44.394Z,17.80
2022-08-26T18:49:16.023Z,17.90
2022-08-26T18:51:43.279Z,18.00
2022-08-26T18:54:10.607Z,17.90
2022-08-26T18:56:39.293Z,17.80
2022-08-26T18:59:07.929Z,17.80
2022-08-26T19:01:36.293Z,17.80
2022-08-26T19:04:05.056Z,17.90
2022-08-26T19:06:35.319Z,18.00
2022-08-26T19:09:04.262Z,17.90
2022-08-26T19:11:32.483Z,17.90
2022-08-26T19:14:08.292Z,17.90
2022-08-26T19:16:35.989Z,18.00
2022-08-26T19:19:02.787Z,17.90
2022-08-26T19:21:29.744Z,17.90
2022-08-26T19:23:58.425Z,17.90
2022-08-26T19:26:26.318Z,17.90
2022-08-26T19:28:53.223Z,17.90
2022-08-26T19:31:20.149Z,17.90
2022-08-26T19:33:46.838Z,17.90
2022-08-26T19:36:17.364Z,17.90
2022-08-26T19:38:45.418Z,18.00
2022-08-26T19:41:18.134Z,17.90
2022-08-26T19:43:44.729Z,17.90
2022-08-26T19:46:18.690Z,17.90
2022-08-26T19:48:46.434Z,17.80
2022-08-26T19:51:20.354Z,17.80
2022-08-26T19:53:48.583Z,17.80
2022-08-26T19:56:15.323Z,17.80
2022-08-26T19:58:42.389Z,17.80
2022-08-26T20:01:09.773Z,17.60
2022-08-26T20:03:37.406Z,17.80
2022-08-26T20:06:06.885Z,17.80
2022-08-26T20:08:34.980Z,17.90
2022-08-26T20:11:04.771Z,17.80
2022-08-26T20:13:32.170Z,17.90
2022-08-26T20:15:58.795Z,17.90
2022-08-26T20:18:44.113Z,17.90
2022-08-26T20:21:26.401Z,17.80
2022-08-26T20:24:00.361Z,17.80
2022-08-26T20:26:29.146Z,17.80
2022-08-26T20:28:56.205Z,17.70
2022-08-26T20:31:23.906Z,17.70
2022-08-26T20:33:51.491Z,17.70
2022-08-26T20:36:20.374Z,17.70
2022-08-26T20:38:48.346Z,17.70
2022-08-26T20:41:15.776Z,17.70
2022-08-26T20:43:42.925Z,17.70
2022-08-26T20:46:17.960Z,17.70
2022-08-26T20:48:47.951Z,17.80
2022-08-26T20:51:16.077Z,17.80
2022-08-26T20:53:44.102Z,17.80
2022-08-26T20:56:12.615Z,17.80
2022-08-26T20:58:40.813Z,17.80
2022-08-26T21:01:08.208Z,17.70
2022-08-26T21:03:36.109Z,17.70
2022-08-26T21:06:03.755Z,17.80
2022-08-26T21:08:32.696Z,17.90
2022-08-26T21:11:00.661Z,17.90
2022-08-26T21:13:29.002Z,18.00
2022-08-26T21:15:59.757Z,17.90
2022-08-26T21:18:26.479Z,18.00
2022-08-26T21:20:53.215Z,18.00
2022-08-26T21:23:19.814Z,17.90
2022-08-26T21:25:47.003Z,17.90
2022-08-26T21:28:13.627Z,17.90
2022-08-26T21:30:41.339Z,17.80
2022-08-26T21:33:08.637Z,17.80
2022-08-26T21:35:35.597Z,17.80
2022-08-26T21:38:02.272Z,17.80
2022-08-26T21:40:28.933Z,17.90
2022-08-26T21:42:55.605Z,17.90
2022-08-26T21:45:22.505Z,17.80
2022-08-26T21:47:49.194Z,17.90
2022-08-26T21:50:15.834Z,17.90
2022-08-26T21:52:42.466Z,17.80
2022-08-26T21:55:11.546Z,17.90
2022-08-26T21:57:38.484Z,17.90
2022-08-26T22:00:08.813Z,18.00
2022-08-26T22:02:36.959Z,18.00
2022-08-26T22:05:03.987Z,17.90
2022-08-26T22:07:30.636Z,17.90
2022-08-26T22:09:57.214Z,18.00
2022-08-26T22:12:24.131Z,18.10
2022-08-26T22:14:50.730Z,18.00
2022-08-26T22:17:17.465Z,18.00
2022-08-26T22:19:46.415Z,18.00
2022-08-26T22:22:14.291Z,18.00
2022-08-26T22:24:43.123Z,18.00
2022-08-26T22:27:11.809Z,18.00
2022-08-26T22:29:38.610Z,18.00
2022-08-26T22:32:05.572Z,18.00
2022-08-26T22:34:32.231Z,18.00
2022-08-26T22:36:59.476Z,18.00
2022-08-26T22:39:26.555Z,18.00
2022-08-26T22:41:54.197Z,18.00
2022-08-26T22:44:22.061Z,17.90
2022-08-26T22:46:50.060Z,17.70
2022-08-26T22:49:16.814Z,17.90
2022-08-26T22:51:45.130Z,17.90
2022-08-26T22:54:12.136Z,17.90
2022-08-26T22:56:39.380Z,18.00
2022-08-26T22:59:07.889Z,18.00
2022-08-26T23:01:40.869Z,18.00
2022-08-26T23:04:08.528Z,18.00
2022-08-26T23:06:40.054Z,18.00
2022-08-26T23:09:07.556Z,18.00
2022-08-26T23:11:34.808Z,18.00
2022-08-26T23:14:02.297Z,18.10
2022-08-26T23:16:38.009Z,18.10
2022-08-26T23:19:06.410Z,18.00
2022-08-26T23:21:33.278Z,18.10
2022-08-26T23:24:00.884Z,18.10
2022-08-26T23:26:27.630Z,18.10
2022-08-26T23:28:54.909Z,18.10
2022-08-26T23:31:21.533Z,18.20
2022-08-26T23:34:06.624Z,18.10
2022-08-26T23:36:34.365Z,18.10
2022-08-26T23:39:02.480Z,18.10
2022-08-26T23:41:29.100Z,18.10
2022-08-26T23:43:55.803Z,18.10
2022-08-26T23:46:22.457Z,18.10
2022-08-26T23:48:49.030Z,18.10
2022-08-26T23:51:34.488Z,18.10
2022-08-26T23:54:01.117Z,18.10
2022-08-26T23:56:28.538Z,18.10
2022-08-26T23:58:55.329Z,18.10
